Time;durP1;ratioP1;P1;durP2;ratioP2;P2;SDS_P1;SDS_P2;PMS_P1;PMS_P2;Temp;Humidity;BMP_temperature;BMP_pressure;BME280_temperature;BME280_humidity;BME280_pressure;Samples;Min_cycle;Max_cycle;Signal;HPM_P1;HPM_P2
2023/01/17 00:02:44;;;;;;;6.70;2.80;;;5.40;99.90;;;;;;5107156;28;20222;-73
2023/01/17 00:11:36;;;;;;;5.00;2.45;;;5.40;99.90;;;;;;5100939;28;20197;-73
2023/01/17 00:14:23;;;;;;;6.22;2.60;;;5.50;99.90;;;;;;5105490;28;20265;-73
2023/01/17 00:17:09;;;;;;;5.43;2.80;;;5.60;99.90;;;;;;5104461;28;20216;-73
2023/01/17 00:26:15;;;;;;;5.68;2.55;;;5.50;99.90;;;;;;5043636;28;20579;-73
2023/01/17 01:34:30;;;;;;;9.07;2.58;;;5.00;99.90;;;;;;5112315;28;20260;-73
2023/01/17 01:37:15;;;;;;;6.05;3.00;;;5.00;99.90;;;;;;5110443;27;20210;-73
2023/01/17 01:40:01;;;;;;;5.47;2.80;;;5.00;99.90;;;;;;5113969;27;20755;-73
2023/01/17 01:42:51;;;;;;;6.80;2.88;;;4.90;99.90;;;;;;5107041;28;20349;-73
2023/01/17 01:45:37;;;;;;;5.47;2.60;;;4.90;99.90;;;;;;5110247;28;20203;-73
2023/01/17 01:48:35;;;;;;;4.97;2.53;;;5.00;99.90;;;;;;5118241;27;20273;-73
2023/01/17 01:51:25;;;;;;;5.07;2.85;;;5.00;99.90;;;;;;5109860;28;20195;-73
2023/01/17 01:54:16;;;;;;;4.78;2.92;;;4.90;99.90;;;;;;5109167;28;20219;-73
2023/01/17 01:57:05;;;;;;;10.88;3.97;;;4.90;99.90;;;;;;5106227;28;20202;-73
2023/01/17 01:59:56;;;;;;;7.78;3.30;;;4.80;99.90;;;;;;5110390;28;20587;-73
2023/01/17 02:02:44;;;;;;;6.97;2.95;;;4.80;99.90;;;;;;5109624;28;20218;-73
2023/01/17 02:05:30;;;;;;;3.65;2.40;;;4.80;99.90;;;;;;5100825;28;20775;-73
2023/01/17 02:08:20;;;;;;;6.15;3.28;;;4.80;99.90;;;;;;5118738;27;20203;-73
2023/01/17 02:11:06;;;;;;;5.85;4.03;;;4.90;99.90;;;;;;5106379;28;20309;-73
2023/01/17 02:13:51;;;;;;;10.38;3.15;;;4.90;99.90;;;;;;5109177;28;20218;-73
2023/01/17 02:16:54;;;;;;;5.10;3.00;;;4.80;99.90;;;;;;5098324;28;20322;-73
2023/01/17 02:20:09;;;;;;;5.60;2.75;;;4.70;99.90;;;;;;5111979;28;20223;-73
2023/01/17 02:23:36;;;;;;;8.02;3.20;;;4.70;99.90;;;;;;5109252;28;20707;-73
2023/01/17 02:26:54;;;;;;;5.18;2.95;;;4.70;99.90;;;;;;5102738;28;20717;-73
2023/01/17 02:30:20;;;;;;;6.20;3.08;;;4.80;99.90;;;;;;5114311;27;20680;-73
2023/01/17 02:33:24;;;;;;;8.85;3.22;;;4.80;99.90;;;;;;5108798;28;20240;-73
2023/01/17 02:36:17;;;;;;;6.22;2.90;;;4.70;99.90;;;;;;5106537;27;20568;-73
2023/01/17 02:39:08;;;;;;;7.72;4.22;;;4.60;99.90;;;;;;5111257;27;20292;-73
2023/01/17 02:42:00;;;;;;;21.52;3.60;;;4.70;99.90;;;;;;5105035;28;20608;-73
2023/01/17 02:44:45;;;;;;;5.65;3.47;;;4.70;99.90;;;;;;5109598;28;20800;-73
2023/01/17 02:47:32;;;;;;;4.20;2.80;;;4.60;99.90;;;;;;5116371;27;20695;-73
2023/01/17 02:50:23;;;;;;;4.13;3.17;;;4.50;99.90;;;;;;5106832;28;20280;-73
2023/01/17 02:53:22;;;;;;;7.20;3.35;;;4.40;99.90;;;;;;5108230;28;20227;-73
2023/01/17 02:56:17;;;;;;;6.68;3.45;;;4.50;99.90;;;;;;5109799;27;20198;-73
2023/01/17 02:59:15;;;;;;;3.88;3.25;;;4.40;99.90;;;;;;5105507;27;20238;-73
2023/01/17 03:02:16;;;;;;;4.55;3.08;;;4.40;99.90;;;;;;5110607;28;20678;-73
2023/01/17 03:05:06;;;;;;;7.18;3.53;;;4.30;99.90;;;;;;5105500;28;20225;-73
2023/01/17 03:07:54;;;;;;;4.90;3.05;;;4.20;99.90;;;;;;5110480;27;20336;-73
2023/01/17 03:10:41;;;;;;;6.10;3.80;;;4.30;99.90;;;;;;5107305;28;20316;-73
2023/01/17 03:13:27;;;;;;;6.65;3.75;;;4.30;99.90;;;;;;5107541;28;20261;-73
2023/01/17 03:16:17;;;;;;;8.07;3.50;;;4.40;99.90;;;;;;5110225;27;20214;-73
2023/01/17 03:19:03;;;;;;;5.25;3.03;;;4.50;99.90;;;;;;5107308;28;20219;-73
2023/01/17 03:21:49;;;;;;;6.80;3.08;;;4.50;99.90;;;;;;5105336;28;20329;-73
2023/01/17 03:24:36;;;;;;;5.90;3.10;;;4.50;99.90;;;;;;5107783;28;20237;-73
2023/01/17 03:27:21;;;;;;;7.13;3.60;;;4.50;99.90;;;;;;5113395;27;20223;-73
2023/01/17 03:30:09;;;;;;;6.05;3.05;;;4.40;99.90;;;;;;5100273;28;20297;-73
2023/01/17 03:32:54;;;;;;;7.60;3.58;;;4.30;99.90;;;;;;5107647;28;20222;-74
2023/01/17 03:35:40;;;;;;;7.45;3.80;;;4.30;99.90;;;;;;5100199;28;20251;-73
2023/01/17 03:38:26;;;;;;;7.75;3.30;;;4.20;99.90;;;;;;5101831;28;20221;-73
2023/01/17 03:41:12;;;;;;;5.38;3.45;;;4.30;99.90;;;;;;5101031;28;20280;-73
2023/01/17 03:43:58;;;;;;;7.82;3.10;;;4.30;99.90;;;;;;5105565;28;20697;-73
2023/01/17 03:46:44;;;;;;;3.67;3.17;;;4.10;99.90;;;;;;5104827;28;20211;-73
2023/01/17 03:49:30;;;;;;;4.35;3.05;;;4.20;99.90;;;;;;5107813;28;20202;-73
2023/01/17 03:52:15;;;;;;;7.95;3.50;;;4.10;99.90;;;;;;5101751;28;20575;-73
2023/01/17 03:55:02;;;;;;;9.75;3.78;;;4.00;99.90;;;;;;5099110;28;20252;-73
2023/01/17 03:57:49;;;;;;;5.80;3.65;;;4.00;99.90;;;;;;5102988;28;20571;-73
2023/01/17 04:00:35;;;;;;;6.53;3.83;;;4.00;99.90;;;;;;5107094;28;20223;-73
2023/01/17 04:03:21;;;;;;;8.25;3.60;;;4.10;99.90;;;;;;5106717;28;20777;-73
2023/01/17 04:06:07;;;;;;;5.75;4.10;;;3.90;99.90;;;;;;5103454;28;20688;-73
2023/01/17 04:08:53;;;;;;;5.60;3.55;;;3.90;99.90;;;;;;5107141;28;20212;-73
2023/01/17 04:11:38;;;;;;;8.13;3.80;;;4.00;99.90;;;;;;5116773;27;20727;-73
2023/01/17 04:14:25;;;;;;;5.25;3.65;;;3.90;99.90;;;;;;5103515;28;20226;-73
2023/01/17 04:17:13;;;;;;;8.65;4.13;;;4.00;99.90;;;;;;5118459;27;20207;-73
2023/01/17 04:19:58;;;;;;;4.00;3.53;;;4.00;99.90;;;;;;5113499;28;20222;-73
2023/01/17 04:22:44;;;;;;;4.65;3.20;;;4.00;99.90;;;;;;5109551;27;20230;-73
2023/01/17 04:25:30;;;;;;;6.80;3.83;;;3.90;99.90;;;;;;5112586;27;20215;-74
2023/01/17 04:28:16;;;;;;;4.93;3.60;;;3.90;99.90;;;;;;5114444;28;21040;-73
2023/01/17 04:31:03;;;;;;;7.40;4.35;;;3.90;99.90;;;;;;5115327;28;20288;-73
2023/01/17 04:33:48;;;;;;;6.95;3.90;;;3.90;99.90;;;;;;5112177;27;20580;-73
2023/01/17 04:36:34;;;;;;;6.80;4.03;;;3.90;99.90;;;;;;5110111;27;20553;-73
2023/01/17 04:39:20;;;;;;;7.80;3.83;;;4.00;99.90;;;;;;5109983;28;20300;-73
2023/01/17 04:42:06;;;;;;;11.63;3.90;;;4.10;99.90;;;;;;5113711;28;20205;-73
2023/01/17 04:44:51;;;;;;;8.23;4.20;;;4.10;99.90;;;;;;5108186;27;20203;-74
2023/01/17 04:47:38;;;;;;;6.28;4.20;;;4.20;99.90;;;;;;5112575;28;20199;-73
2023/01/17 04:50:24;;;;;;;6.97;3.92;;;4.30;99.90;;;;;;5113854;28;20190;-73
2023/01/17 04:53:10;;;;;;;6.70;4.13;;;4.30;99.90;;;;;;5113959;28;20702;-73
2023/01/17 04:55:55;;;;;;;6.68;4.65;;;4.30;99.90;;;;;;5101438;27;20260;-72
2023/01/17 04:58:41;;;;;;;8.35;5.25;;;4.10;99.90;;;;;;5111134;28;20250;-74
2023/01/17 05:01:27;;;;;;;8.50;4.50;;;4.20;99.90;;;;;;5116071;28;20272;-73
2023/01/17 05:04:14;;;;;;;7.35;4.90;;;4.20;99.90;;;;;;5112540;28;20223;-73
2023/01/17 05:06:59;;;;;;;6.10;3.55;;;4.20;99.90;;;;;;5108030;28;20609;-74
2023/01/17 05:09:46;;;;;;;6.57;4.50;;;4.30;99.90;;;;;;5112850;27;20683;-73
2023/01/17 05:12:31;;;;;;;8.48;3.70;;;4.30;99.90;;;;;;5113819;28;20272;-73
2023/01/17 05:15:17;;;;;;;7.50;4.30;;;4.40;99.90;;;;;;5110993;28;20214;-74
2023/01/17 05:18:07;;;;;;;5.65;3.60;;;4.40;99.90;;;;;;5116234;28;20333;-73
2023/01/17 05:20:54;;;;;;;8.13;4.85;;;4.40;99.90;;;;;;5115748;28;20231;-73
2023/01/17 05:23:41;;;;;;;7.60;4.03;;;4.40;99.90;;;;;;5113529;28;20278;-73
2023/01/17 05:26:26;;;;;;;8.05;4.15;;;4.20;99.90;;;;;;5105640;28;20321;-73
2023/01/17 05:29:12;;;;;;;5.28;3.55;;;4.20;99.90;;;;;;5103050;28;20202;-74
2023/01/17 05:31:58;;;;;;;9.30;3.83;;;4.30;99.90;;;;;;5103558;28;20459;-74
2023/01/17 05:34:43;;;;;;;8.90;3.85;;;4.20;99.90;;;;;;5103766;28;20729;-73
2023/01/17 05:37:30;;;;;;;11.05;3.80;;;4.30;99.90;;;;;;5103031;28;20288;-73
2023/01/17 05:40:16;;;;;;;9.52;4.15;;;4.30;99.90;;;;;;5111396;28;20211;-74
2023/01/17 05:43:03;;;;;;;4.85;3.95;;;4.30;99.90;;;;;;5105094;28;20572;-73
2023/01/17 05:45:49;;;;;;;8.38;4.38;;;4.40;99.90;;;;;;5109335;28;20336;-73
2023/01/17 05:48:34;;;;;;;14.60;3.30;;;4.30;99.90;;;;;;5103638;28;20569;-73
2023/01/17 05:51:20;;;;;;;4.90;3.28;;;4.20;99.90;;;;;;5109900;28;20239;-74
2023/01/17 05:54:07;;;;;;;8.38;3.40;;;4.30;99.90;;;;;;5101321;28;20368;-73
2023/01/17 05:56:53;;;;;;;6.07;3.65;;;4.30;99.90;;;;;;5111610;28;20657;-74
2023/01/17 05:59:39;;;;;;;6.18;3.28;;;4.20;99.90;;;;;;5102578;28;20329;-73
2023/01/17 06:02:25;;;;;;;9.25;3.13;;;4.30;99.90;;;;;;5093968;28;20243;-73
2023/01/17 06:05:12;;;;;;;5.18;3.33;;;4.30;99.90;;;;;;5104390;28;20199;-73
2023/01/17 06:07:58;;;;;;;7.00;4.20;;;4.30;99.90;;;;;;5112578;28;20567;-72
2023/01/17 06:10:45;;;;;;;11.50;3.70;;;4.20;99.90;;;;;;5111374;28;20265;-72
2023/01/17 06:13:31;;;;;;;7.32;3.63;;;4.10;99.90;;;;;;5111328;27;20231;-72
2023/01/17 06:16:16;;;;;;;6.32;3.25;;;4.10;99.90;;;;;;5113523;28;20714;-72
2023/01/17 06:19:02;;;;;;;8.10;3.00;;;4.10;99.90;;;;;;5112572;28;20195;-72
2023/01/17 06:21:48;;;;;;;5.18;3.60;;;4.20;99.90;;;;;;5105498;28;20664;-72
2023/01/17 06:24:33;;;;;;;9.27;3.13;;;4.20;99.90;;;;;;5103970;28;20227;-72
2023/01/17 06:27:20;;;;;;;6.15;2.80;;;4.20;99.90;;;;;;5112255;28;20332;-71
2023/01/17 06:30:07;;;;;;;4.30;3.30;;;4.20;99.90;;;;;;5107661;28;20314;-73
2023/01/17 06:32:53;;;;;;;8.82;3.45;;;4.20;99.90;;;;;;5106987;28;20775;-73
2023/01/17 06:35:41;;;;;;;3.95;2.90;;;4.20;99.90;;;;;;5113038;28;20198;-73
2023/01/17 06:38:28;;;;;;;8.98;4.55;;;4.00;99.90;;;;;;5112322;27;20658;-73
2023/01/17 06:41:14;;;;;;;4.97;2.75;;;3.80;99.90;;;;;;5113186;28;20214;-73
2023/01/17 06:44:01;;;;;;;5.53;3.53;;;3.80;99.90;;;;;;5120419;27;20348;-73
2023/01/17 06:46:47;;;;;;;4.15;3.30;;;3.70;99.90;;;;;;5111616;27;20687;-73
2023/01/17 06:49:33;;;;;;;15.73;4.45;;;3.60;99.90;;;;;;5113426;28;20268;-73
2023/01/17 06:52:19;;;;;;;5.47;3.50;;;3.60;99.90;;;;;;5109695;28;20570;-73
2023/01/17 06:55:05;;;;;;;8.95;4.35;;;3.70;99.90;;;;;;5108314;28;20206;-73
2023/01/17 06:57:51;;;;;;;8.40;4.85;;;3.60;99.90;;;;;;5106745;28;20264;-73
2023/01/17 07:00:38;;;;;;;10.35;5.18;;;3.70;99.90;;;;;;5105343;28;20225;-73
2023/01/17 07:03:25;;;;;;;7.75;5.32;;;3.80;99.90;;;;;;5110277;27;20227;-74
2023/01/17 07:06:11;;;;;;;7.80;4.22;;;3.80;99.90;;;;;;5107942;27;20199;-73
2023/01/17 07:08:57;;;;;;;9.60;5.20;;;3.80;99.90;;;;;;5104774;28;20790;-73
2023/01/17 07:11:44;;;;;;;7.32;4.50;;;3.90;99.90;;;;;;5102876;28;20206;-74
2023/01/17 07:14:29;;;;;;;6.45;3.55;;;3.70;99.90;;;;;;5104662;28;20231;-73
2023/01/17 07:17:16;;;;;;;7.32;4.43;;;3.70;99.90;;;;;;5112194;28;20269;-73
2023/01/17 07:20:02;;;;;;;8.63;4.30;;;3.60;99.90;;;;;;5106324;28;20214;-73
2023/01/17 07:22:47;;;;;;;11.93;5.15;;;3.40;99.90;;;;;;5105122;28;20586;-73
2023/01/17 07:25:33;;;;;;;38.53;15.93;;;3.30;99.90;;;;;;5107150;28;20207;-73
2023/01/17 07:28:19;;;;;;;9.77;5.90;;;3.20;99.90;;;;;;5103922;28;20211;-73
2023/01/17 07:31:06;;;;;;;9.57;5.22;;;3.20;99.90;;;;;;5113022;28;20571;-73
2023/01/17 07:33:53;;;;;;;241.43;83.15;;;3.20;99.90;;;;;;5115842;27;20233;-73
2023/01/17 07:36:39;;;;;;;135.02;52.38;;;3.00;99.90;;;;;;5116928;27;20704;-73
2023/01/17 07:39:24;;;;;;;117.60;46.60;;;3.00;99.90;;;;;;5103004;28;20613;-73
2023/01/17 07:42:10;;;;;;;34.90;14.85;;;3.10;99.90;;;;;;5109382;28;20219;-73
2023/01/17 07:44:56;;;;;;;23.88;9.80;;;3.20;99.90;;;;;;5106951;28;20214;-73
2023/01/17 07:47:41;;;;;;;12.60;6.75;;;3.40;99.90;;;;;;5104396;28;20214;-73
2023/01/17 07:50:28;;;;;;;10.63;5.50;;;3.40;99.90;;;;;;5111347;28;20708;-73
2023/01/17 07:53:14;;;;;;;8.50;4.80;;;3.20;99.90;;;;;;5116715;27;20234;-73
2023/01/17 07:56:01;;;;;;;7.45;4.32;;;3.20;99.90;;;;;;5115403;27;20678;-73
2023/01/17 07:58:47;;;;;;;8.40;5.22;;;3.20;99.90;;;;;;5110544;28;20741;-73
2023/01/17 08:01:32;;;;;;;8.02;3.60;;;3.20;99.90;;;;;;5110293;28;20672;-73
2023/01/17 08:04:18;;;;;;;6.18;4.07;;;3.20;99.90;;;;;;5111359;28;20230;-73
2023/01/17 08:07:05;;;;;;;6.40;3.83;;;3.20;99.90;;;;;;5112042;28;20798;-73
2023/01/17 08:09:51;;;;;;;9.05;4.00;;;3.20;99.90;;;;;;5111570;27;20203;-73
2023/01/17 08:12:37;;;;;;;4.72;3.80;;;3.10;99.90;;;;;;5098912;28;20195;-73
2023/01/17 08:15:25;;;;;;;5.30;3.80;;;3.10;99.90;;;;;;5112211;28;20588;-73
2023/01/17 08:18:10;;;;;;;6.10;3.70;;;3.20;99.90;;;;;;5115783;28;20336;-73
2023/01/17 08:20:56;;;;;;;7.82;3.90;;;3.10;99.90;;;;;;5105786;28;20242;-73
2023/01/17 08:23:46;;;;;;;6.10;4.57;;;2.90;99.90;;;;;;5118229;28;20233;-73
2023/01/17 08:26:32;;;;;;;10.00;4.43;;;2.50;99.90;;;;;;5110701;28;20249;-73
2023/01/17 08:29:18;;;;;;;7.90;5.30;;;2.40;99.90;;;;;;5100972;28;20568;-73
2023/01/17 08:32:04;;;;;;;13.27;6.97;;;2.30;99.90;;;;;;5099162;28;20276;-73
2023/01/17 08:34:50;;;;;;;8.60;5.38;;;2.30;99.90;;;;;;5104665;28;20198;-73
2023/01/17 08:37:37;;;;;;;9.80;6.15;;;2.40;99.90;;;;;;5111432;28;20222;-73
2023/01/17 08:40:24;;;;;;;7.70;5.50;;;2.60;99.90;;;;;;5112576;28;20213;-73
2023/01/17 08:43:10;;;;;;;11.27;6.43;;;2.70;99.90;;;;;;5105076;28;20280;-73
2023/01/17 08:45:56;;;;;;;15.90;7.30;;;2.90;99.90;;;;;;5110410;28;20273;-73
2023/01/17 08:48:41;;;;;;;12.40;6.68;;;3.00;99.90;;;;;;5107914;28;20667;-73
2023/01/17 08:51:27;;;;;;;13.52;7.70;;;3.20;99.90;;;;;;5108389;28;20577;-73
2023/01/17 08:54:14;;;;;;;11.90;6.72;;;3.20;99.90;;;;;;5108608;28;20798;-73
2023/01/17 08:57:02;;;;;;;9.90;6.85;;;3.30;99.90;;;;;;5111042;28;20199;-73
2023/01/17 08:59:47;;;;;;;9.82;6.63;;;3.40;99.90;;;;;;5105058;28;20206;-73
2023/01/17 09:02:33;;;;;;;13.25;7.10;;;3.40;99.90;;;;;;5104737;28;20239;-73
2023/01/17 09:05:18;;;;;;;13.45;7.30;;;3.40;99.90;;;;;;5114987;28;20207;-73
2023/01/17 09:08:04;;;;;;;11.20;6.75;;;3.50;99.90;;;;;;5111167;27;20695;-73
2023/01/17 09:10:50;;;;;;;12.38;5.95;;;3.60;99.90;;;;;;5113314;28;20199;-73
2023/01/17 09:13:37;;;;;;;10.27;6.10;;;3.70;99.90;;;;;;5122752;27;20356;-73
2023/01/17 09:16:23;;;;;;;11.18;5.90;;;3.80;99.90;;;;;;5113520;28;20195;-73
2023/01/17 09:19:09;;;;;;;8.43;5.60;;;3.90;99.90;;;;;;5110998;28;20221;-72
2023/01/17 09:21:55;;;;;;;8.10;6.05;;;3.90;99.90;;;;;;5109144;27;20232;-73
2023/01/17 09:24:41;;;;;;;8.45;6.07;;;3.90;99.90;;;;;;5111169;28;20223;-73
2023/01/17 09:27:27;;;;;;;8.40;6.05;;;4.00;99.90;;;;;;5114537;28;20665;-73
2023/01/17 09:30:15;;;;;;;8.25;5.15;;;4.10;99.90;;;;;;5115999;28;20657;-73
2023/01/17 09:33:00;;;;;;;9.68;5.32;;;4.20;99.90;;;;;;5110287;27;20218;-73
2023/01/17 09:35:47;;;;;;;12.68;5.00;;;4.20;99.90;;;;;;5112774;28;20264;-73
2023/01/17 09:38:33;;;;;;;6.03;4.50;;;4.30;99.90;;;;;;5114719;28;20214;-73
2023/01/17 09:41:26;;;;;;;8.95;5.00;;;4.40;99.90;;;;;;5105763;28;20215;-73
2023/01/17 09:44:25;;;;;;;7.47;4.68;;;4.50;99.90;;;;;;5114361;28;20222;-73
2023/01/17 09:47:18;;;;;;;6.75;5.00;;;4.60;99.90;;;;;;5113299;28;20210;-73
2023/01/17 09:50:23;;;;;;;8.85;5.47;;;4.70;99.90;;;;;;5108785;28;20203;-73
2023/01/17 09:53:14;;;;;;;8.45;4.80;;;4.80;99.90;;;;;;5115590;27;20299;-73
2023/01/17 09:56:04;;;;;;;13.43;5.60;;;4.80;99.90;;;;;;5114346;28;20195;-73
2023/01/17 09:59:02;;;;;;;7.30;4.55;;;4.80;99.90;;;;;;5112086;28;20202;-73
2023/01/17 10:01:54;;;;;;;11.70;5.65;;;4.80;99.90;;;;;;5104479;28;20226;-73
2023/01/17 10:05:16;;;;;;;9.85;5.05;;;4.90;99.90;;;;;;5105147;28;20293;-73
2023/01/17 10:08:16;;;;;;;5.78;4.00;;;5.00;99.90;;;;;;5109973;28;20568;-73
2023/01/17 10:11:24;;;;;;;8.32;5.53;;;5.10;99.90;;;;;;5111573;27;20191;-73
2023/01/17 10:14:25;;;;;;;11.02;5.00;;;5.30;99.90;;;;;;5123333;27;20217;-73
2023/01/17 10:17:17;;;;;;;8.82;4.80;;;5.40;99.90;;;;;;5110391;28;20717;-73
2023/01/17 10:20:32;;;;;;;10.52;4.95;;;5.30;99.90;;;;;;5108732;28;20199;-73
2023/01/17 10:25:54;;;;;;;7.35;4.13;;;5.20;99.90;;;;;;5074895;28;20215;-78
2023/01/17 10:28:47;;;;;;;7.90;4.78;;;5.30;99.90;;;;;;5074382;28;20672;-77
2023/01/17 10:31:43;;;;;;;9.63;4.38;;;5.30;99.90;;;;;;5071987;28;20226;-77
2023/01/17 10:34:37;;;;;;;10.55;4.82;;;5.40;99.90;;;;;;5082039;28;20304;-76
2023/01/17 10:37:29;;;;;;;5.47;4.20;;;5.50;99.90;;;;;;5083422;28;20199;-78
2023/01/17 10:40:20;;;;;;;11.80;5.07;;;5.50;99.90;;;;;;5073599;28;20696;-77
2023/01/17 10:43:16;;;;;;;14.93;4.35;;;5.60;99.90;;;;;;5078851;28;20204;-78
2023/01/17 10:46:02;;;;;;;7.10;4.65;;;5.60;99.90;;;;;;5078221;28;20208;-77
2023/01/17 10:48:50;;;;;;;8.02;4.72;;;5.70;99.90;;;;;;5081970;28;20275;-77
2023/01/17 10:51:58;;;;;;;7.13;4.03;;;5.70;99.90;;;;;;5073387;28;20200;-77
2023/01/17 10:54:55;;;;;;;12.50;4.95;;;5.70;99.90;;;;;;5077860;28;20301;-77
2023/01/17 10:57:43;;;;;;;8.90;4.40;;;5.80;99.90;;;;;;5070270;28;20303;-77
2023/01/17 11:00:42;;;;;;;8.90;4.53;;;5.90;99.90;;;;;;5069080;28;20231;-77
2023/01/17 11:03:28;;;;;;;12.37;5.27;;;5.90;99.90;;;;;;5085083;28;20207;-76
2023/01/17 11:06:20;;;;;;;9.70;4.88;;;6.00;99.90;;;;;;5076139;28;20510;-78
2023/01/17 11:09:09;;;;;;;8.82;4.57;;;6.00;99.90;;;;;;5085876;28;20203;-78
2023/01/17 11:11:56;;;;;;;8.48;4.10;;;6.00;99.90;;;;;;5078738;28;20519;-77
2023/01/17 11:14:57;;;;;;;7.82;4.25;;;6.00;99.90;;;;;;5079644;28;20259;-78
2023/01/17 11:17:48;;;;;;;10.02;3.58;;;6.10;99.90;;;;;;5078190;28;20203;-77
2023/01/17 11:20:37;;;;;;;7.60;3.42;;;6.20;99.90;;;;;;5066462;28;20196;-76
2023/01/17 11:23:29;;;;;;;5.95;3.30;;;6.30;99.90;;;;;;5081613;28;20200;-78
2023/01/17 11:26:26;;;;;;;4.57;3.17;;;6.30;99.90;;;;;;5077389;28;20307;-76
2023/01/17 11:29:32;;;;;;;5.55;3.10;;;6.30;99.90;;;;;;5072495;28;20196;-77
2023/01/17 11:32:41;;;;;;;4.53;3.30;;;6.30;99.90;;;;;;5070115;28;20248;-78
2023/01/17 11:35:29;;;;;;;6.45;2.80;;;6.20;99.90;;;;;;5080258;28;20282;-77
2023/01/17 11:38:18;;;;;;;5.25;3.30;;;6.10;99.90;;;;;;5078198;28;20562;-78
2023/01/17 11:41:19;;;;;;;11.68;4.72;;;6.20;99.90;;;;;;5071884;28;20203;-77
2023/01/17 11:44:22;;;;;;;5.00;3.40;;;6.20;99.90;;;;;;5081142;28;20214;-78
2023/01/17 11:47:17;;;;;;;6.18;3.25;;;6.30;99.90;;;;;;5075237;28;20261;-76
2023/01/17 11:50:24;;;;;;;4.97;2.30;;;6.40;99.90;;;;;;5062592;28;20204;-77
2023/01/17 11:53:22;;;;;;;4.70;2.58;;;6.30;99.90;;;;;;5082994;28;20211;-77
2023/01/17 11:56:10;;;;;;;12.98;5.60;;;6.20;99.90;;;;;;5079758;28;20211;-78
2023/01/17 11:59:22;;;;;;;12.23;5.93;;;6.20;99.90;;;;;;5072247;28;20215;-77
2023/01/17 12:02:37;;;;;;;19.02;6.90;;;6.10;99.90;;;;;;5077670;28;20692;-77
2023/01/17 12:05:37;;;;;;;11.63;4.60;;;6.20;99.90;;;;;;5076516;28;20269;-78
2023/01/17 12:08:36;;;;;;;5.97;3.05;;;6.00;99.90;;;;;;5077192;28;22162;-76
2023/01/17 12:11:30;;;;;;;4.83;2.33;;;5.90;99.90;;;;;;5074229;28;20215;-78
2023/01/17 12:14:25;;;;;;;7.10;2.87;;;5.90;99.90;;;;;;5074500;28;20519;-77
2023/01/17 12:17:23;;;;;;;4.30;2.57;;;6.00;99.90;;;;;;5082544;28;20422;-77
2023/01/17 12:20:20;;;;;;;10.15;2.60;;;6.10;99.90;;;;;;5067597;28;21079;-78
2023/01/17 12:23:21;;;;;;;4.60;2.63;;;6.10;99.90;;;;;;5077159;28;20227;-78
2023/01/17 12:26:19;;;;;;;7.10;3.20;;;6.30;99.90;;;;;;5070806;28;20748;-78
2023/01/17 12:29:46;;;;;;;8.57;2.90;;;6.40;99.90;;;;;;5074424;28;20957;-78
2023/01/17 12:33:18;;;;;;;6.93;2.50;;;6.50;99.90;;;;;;5082848;28;20423;-78
2023/01/17 12:36:16;;;;;;;4.75;2.00;;;6.60;99.90;;;;;;5075556;28;20262;-78
2023/01/17 12:39:05;;;;;;;5.53;2.00;;;6.70;99.90;;;;;;5078775;28;20615;-77
2023/01/17 12:41:57;;;;;;;5.68;2.45;;;6.70;99.90;;;;;;5072927;28;20668;-77
2023/01/17 12:44:52;;;;;;;2.78;1.75;;;6.70;99.90;;;;;;5082040;28;20339;-77
2023/01/17 12:47:42;;;;;;;7.93;2.47;;;6.70;99.50;;;;;;5083755;28;20196;-77
2023/01/17 12:50:34;;;;;;;4.35;2.22;;;6.70;99.20;;;;;;5068559;28;20442;-76
2023/01/17 12:53:30;;;;;;;4.17;2.40;;;6.60;99.60;;;;;;5077685;28;20205;-77
2023/01/17 12:56:23;;;;;;;3.47;2.42;;;6.60;97.60;;;;;;5068830;28;20459;-75
2023/01/17 12:59:15;;;;;;;9.02;3.35;;;6.90;97.40;;;;;;5072450;28;20685;-77
2023/01/17 13:02:10;;;;;;;5.68;2.70;;;7.10;96.30;;;;;;5077697;28;20224;-78
2023/01/17 13:05:02;;;;;;;6.03;3.15;;;7.30;93.60;;;;;;5076312;28;20306;-77
2023/01/17 13:07:56;;;;;;;4.65;2.40;;;7.70;90.00;;;;;;5071547;28;20240;-77
2023/01/17 13:10:50;;;;;;;3.80;2.35;;;7.90;78.20;;;;;;5081751;28;20279;-78
2023/01/17 13:13:35;;;;;;;3.55;2.00;;;7.90;73.40;;;;;;5079428;28;20284;-78
2023/01/17 13:16:26;;;;;;;5.43;3.00;;;8.20;69.50;;;;;;5081168;28;20212;-77
2023/01/17 13:19:17;;;;;;;3.63;1.80;;;8.30;67.20;;;;;;5074097;28;20450;-78
2023/01/17 13:22:07;;;;;;;3.92;2.50;;;8.30;63.90;;;;;;5080014;28;20693;-78
2023/01/17 13:25:01;;;;;;;3.95;2.28;;;8.40;65.70;;;;;;5081813;28;20227;-78
2023/01/17 13:28:13;;;;;;;3.90;2.43;;;8.60;64.50;;;;;;5072526;28;20220;-78
2023/01/17 13:31:28;;;;;;;7.57;3.37;;;8.70;58.40;;;;;;5075619;28;20540;-77
2023/01/17 13:34:40;;;;;;;7.33;2.97;;;8.50;58.10;;;;;;5072615;28;20481;-78
2023/01/17 13:37:42;;;;;;;5.00;2.30;;;8.40;56.00;;;;;;5074917;28;20544;-78
2023/01/17 13:40:34;;;;;;;6.00;1.97;;;9.00;51.90;;;;;;5077152;28;20449;-78
2023/01/17 13:43:25;;;;;;;9.60;2.90;;;10.20;40.10;;;;;;5073979;28;20478;-78
2023/01/17 13:46:11;;;;;;;10.03;4.87;;;11.30;34.40;;;;;;5075295;28;20512;-77
2023/01/17 13:49:22;;;;;;;8.53;2.77;;;12.10;31.80;;;;;;5070423;28;20442;-78
2023/01/17 13:52:11;;;;;;;5.33;2.40;;;12.00;30.50;;;;;;5079309;28;20484;-78
2023/01/17 13:54:59;;;;;;;8.33;2.40;;;11.20;30.70;;;;;;5067735;28;20557;-78
2023/01/17 13:57:45;;;;;;;7.30;3.00;;;10.50;33.10;;;;;;5075291;28;20455;-78
2023/01/17 14:00:59;;;;;;;9.83;4.00;;;9.80;36.10;;;;;;5069651;28;20517;-78
2023/01/17 14:04:06;;;;;;;13.07;4.00;;;9.10;37.50;;;;;;5078655;28;20490;-78
2023/01/17 14:06:59;;;;;;;3.80;2.13;;;8.40;42.20;;;;;;5069908;28;21028;-78
2023/01/17 14:09:48;;;;;;;5.03;2.40;;;7.90;48.40;;;;;;5069172;28;20975;-79
2023/01/17 14:12:35;;;;;;;4.67;2.40;;;7.70;48.40;;;;;;5077221;28;20481;-77
2023/01/17 14:15:22;;;;;;;7.40;1.90;;;7.40;47.60;;;;;;5072607;28;20517;-78
2023/01/17 14:18:32;;;;;;;5.17;2.20;;;7.40;50.40;;;;;;5078617;28;20448;-79
2023/01/17 14:21:22;;;;;;;4.77;2.00;;;7.10;52.90;;;;;;5070158;28;20454;-78
2023/01/17 14:24:16;;;;;;;4.78;2.10;;;7.00;54.00;;;;;;5075242;28;20821;-77
2023/01/17 14:27:19;;;;;;;7.30;2.03;;;7.00;55.50;;;;;;5080167;28;20842;-78
2023/01/17 14:30:16;;;;;;;3.95;1.75;;;6.80;56.60;;;;;;5076979;28;20512;-78
2023/01/17 14:33:10;;;;;;;6.13;2.17;;;6.70;57.10;;;;;;5076955;28;20326;-77
2023/01/17 14:36:00;;;;;;;9.32;2.15;;;6.60;60.20;;;;;;5077606;28;20431;-78
2023/01/17 14:38:46;;;;;;;4.00;1.85;;;6.60;60.70;;;;;;5063352;28;20680;-76
2023/01/17 14:41:32;;;;;;;4.32;1.83;;;6.50;61.10;;;;;;5073600;28;20278;-78
2023/01/17 14:44:18;;;;;;;4.38;1.98;;;6.40;61.60;;;;;;5073964;28;20223;-78
2023/01/17 14:47:05;;;;;;;4.80;2.03;;;6.20;60.70;;;;;;5074117;28;20697;-77
2023/01/17 14:50:10;;;;;;;4.38;2.10;;;6.20;61.60;;;;;;5075224;28;20208;-78
2023/01/17 14:53:18;;;;;;;3.33;1.98;;;6.10;64.30;;;;;;5075101;28;20200;-77
2023/01/17 14:56:13;;;;;;;6.47;2.50;;;6.20;65.50;;;;;;5075225;28;20684;-77
2023/01/17 14:59:15;;;;;;;5.32;2.13;;;6.10;67.40;;;;;;5069491;28;20244;-77
2023/01/17 15:02:01;;;;;;;8.93;2.60;;;6.00;69.50;;;;;;5074969;28;20250;-78
2023/01/17 15:04:54;;;;;;;3.83;2.25;;;6.10;67.00;;;;;;5072275;28;20223;-78
2023/01/17 15:07:40;;;;;;;5.53;2.40;;;6.00;67.20;;;;;;5070152;28;20314;-76
2023/01/17 15:10:31;;;;;;;4.60;2.47;;;6.00;69.60;;;;;;5074007;28;20203;-76
2023/01/17 15:13:19;;;;;;;4.00;2.38;;;6.10;70.60;;;;;;5081855;28;20200;-77
2023/01/17 15:16:07;;;;;;;2.60;1.90;;;6.10;71.30;;;;;;5075781;28;20200;-78
2023/01/17 15:18:54;;;;;;;3.13;2.28;;;6.10;72.30;;;;;;5069943;28;20214;-77
2023/01/17 15:21:42;;;;;;;6.47;3.08;;;6.20;72.70;;;;;;5067854;28;20226;-77
2023/01/17 15:24:33;;;;;;;3.90;2.20;;;6.10;74.80;;;;;;5072406;28;20232;-77
2023/01/17 15:27:20;;;;;;;7.00;2.58;;;6.10;79.20;;;;;;5068363;28;20796;-76
2023/01/17 15:30:07;;;;;;;4.47;2.20;;;5.90;82.50;;;;;;5065511;28;20575;-78
2023/01/17 15:32:53;;;;;;;3.75;1.90;;;6.00;83.30;;;;;;5071446;28;20200;-77
2023/01/17 15:35:38;;;;;;;6.55;2.50;;;5.90;86.30;;;;;;5074425;28;20223;-77
2023/01/17 15:38:24;;;;;;;4.47;1.90;;;5.80;87.70;;;;;;5076248;28;20288;-78
2023/01/17 15:41:13;;;;;;;3.67;2.22;;;5.60;90.80;;;;;;5081472;28;20199;-78
2023/01/17 15:44:00;;;;;;;3.85;2.20;;;5.50;93.90;;;;;;5077841;28;20727;-78
2023/01/17 15:46:46;;;;;;;6.90;2.20;;;5.50;94.10;;;;;;5066782;28;20201;-78
2023/01/17 15:49:32;;;;;;;5.65;1.83;;;5.50;94.20;;;;;;5069076;28;20570;-78
2023/01/17 15:52:17;;;;;;;4.65;2.75;;;5.40;94.40;;;;;;5081272;28;20279;-77
2023/01/17 15:55:12;;;;;;;7.70;3.03;;;5.40;95.00;;;;;;5080298;28;20219;-78
2023/01/17 15:57:58;;;;;;;5.15;2.80;;;5.30;96.40;;;;;;5069444;28;20200;-78
2023/01/17 16:00:46;;;;;;;8.70;3.28;;;5.40;97.80;;;;;;5071296;28;20628;-78
2023/01/17 16:03:31;;;;;;;7.90;2.35;;;5.30;97.90;;;;;;5084778;28;20230;-76
2023/01/17 16:06:29;;;;;;;5.82;2.38;;;5.30;98.80;;;;;;5078176;28;20251;-77
2023/01/17 16:09:22;;;;;;;10.02;2.85;;;5.00;99.90;;;;;;5083342;28;20204;-78
2023/01/17 16:12:08;;;;;;;5.05;2.05;;;4.90;99.90;;;;;;5073702;28;20196;-77
2023/01/17 16:14:53;;;;;;;4.63;2.25;;;4.90;99.90;;;;;;5077265;28;21496;-78
2023/01/17 16:17:44;;;;;;;4.85;2.25;;;4.80;99.90;;;;;;5062858;28;20282;-78
2023/01/17 16:20:35;;;;;;;4.53;2.35;;;4.80;99.90;;;;;;5083002;28;20195;-78